createdAt,value
2023-01-21T00:01:00.755Z,77.20
2023-01-21T00:03:27.725Z,77.06
2023-01-21T00:05:54.516Z,77.22
2023-01-21T00:08:21.286Z,77.38
2023-01-21T00:10:48.223Z,77.18
2023-01-21T00:13:14.953Z,77.64
2023-01-21T00:15:41.699Z,77.53
2023-01-21T00:18:08.562Z,77.18
2023-01-21T00:20:35.276Z,77.26
2023-01-21T00:23:02.663Z,77.56
2023-01-21T00:25:29.551Z,77.49
2023-01-21T00:27:56.328Z,77.45
2023-01-21T00:30:22.960Z,77.58
2023-01-21T00:32:49.775Z,77.68
2023-01-21T00:35:16.719Z,77.40
2023-01-21T00:37:43.484Z,77.54
2023-01-21T00:40:10.817Z,77.89
2023-01-21T00:42:37.515Z,77.80
2023-01-21T00:45:04.537Z,77.52
2023-01-21T00:47:31.375Z,77.69
2023-01-21T00:49:58.055Z,77.85
2023-01-21T00:52:24.867Z,77.59
2023-01-21T00:54:51.683Z,77.56
2023-01-21T00:57:18.344Z,77.74
2023-01-21T00:59:45.194Z,77.86
2023-01-21T01:02:12.154Z,77.76
2023-01-21T01:04:38.939Z,77.71
2023-01-21T01:07:05.743Z,77.94
2023-01-21T01:09:32.625Z,78.08
2023-01-21T01:11:59.323Z,77.86
2023-01-21T01:14:26.159Z,77.99
2023-01-21T01:16:52.990Z,77.99
2023-01-21T01:19:19.719Z,78.15
2023-01-21T01:21:46.649Z,77.73
2023-01-21T01:24:13.401Z,77.86
2023-01-21T01:26:42.241Z,78.18
2023-01-21T01:29:12.131Z,77.77
2023-01-21T01:31:39.379Z,78.13
2023-01-21T01:34:06.174Z,78.04
2023-01-21T01:36:32.882Z,78.08
2023-01-21T01:38:59.794Z,77.95
2023-01-21T01:41:30.024Z,78.38
2023-01-21T01:44:02.872Z,77.93
2023-01-21T01:46:34.902Z,78.43
2023-01-21T01:49:19.517Z,77.84
2023-01-21T01:51:55.062Z,78.23
2023-01-21T01:54:29.463Z,77.92
2023-01-21T01:57:00.252Z,78.49
2023-01-21T01:59:27.937Z,78.14
2023-01-21T02:01:57.007Z,78.25
2023-01-21T02:04:29.610Z,78.18
2023-01-21T02:06:57.714Z,78.50
2023-01-21T02:09:29.759Z,78.20
2023-01-21T02:11:59.880Z,78.15
2023-01-21T02:14:28.353Z,78.69
2023-01-21T02:17:12.300Z,78.25
2023-01-21T02:19:38.957Z,78.51
2023-01-21T02:22:43.308Z,78.59
2023-01-21T02:25:10.052Z,78.36
2023-01-21T02:27:50.571Z,78.28
2023-01-21T02:30:30.796Z,78.49
2023-01-21T02:33:15.984Z,78.57
2023-01-21T02:36:00.240Z,78.50
2023-01-21T02:38:45.058Z,78.48
2023-01-21T02:41:18.983Z,78.63
2023-01-21T02:44:25.085Z,78.65
2023-01-21T02:47:00.930Z,78.43
2023-01-21T02:49:35.261Z,78.32
2023-01-21T02:52:01.963Z,78.84
2023-01-21T02:54:41.142Z,78.79
2023-01-21T02:57:12.187Z,78.58
2023-01-21T02:59:43.223Z,78.73
2023-01-21T03:02:28.784Z,78.55
2023-01-21T03:05:16.926Z,78.70
2023-01-21T03:08:01.784Z,78.62
2023-01-21T03:10:36.536Z,78.63
2023-01-21T03:13:46.225Z,78.71
2023-01-21T03:16:34.642Z,78.50
2023-01-21T03:19:06.510Z,78.90
2023-01-21T03:21:35.258Z,78.80
2023-01-21T03:24:02.779Z,78.59
2023-01-21T03:26:37.543Z,78.88
2023-01-21T03:29:14.742Z,79.00
2023-01-21T03:31:45.375Z,79.07
2023-01-21T03:34:15.374Z,78.80
2023-01-21T03:36:49.111Z,79.31
2023-01-21T03:39:44.711Z,79.05
2023-01-21T03:42:13.450Z,79.39
2023-01-21T03:44:41.859Z,79.19
2023-01-21T03:47:20.412Z,79.32
2023-01-21T03:49:57.665Z,79.02
2023-01-21T03:52:26.224Z,79.03
2023-01-21T03:54:53.922Z,78.89
2023-01-21T03:57:21.173Z,79.14
2023-01-21T03:59:47.933Z,79.25
2023-01-21T04:02:20.205Z,79.44
2023-01-21T04:04:48.253Z,79.15
2023-01-21T04:07:16.314Z,79.27
2023-01-21T04:09:43.319Z,79.13
2023-01-21T04:12:10.224Z,79.22
2023-01-21T04:14:37.343Z,79.16
2023-01-21T04:17:04.962Z,79.31
2023-01-21T04:19:31.867Z,79.71
2023-01-21T04:21:58.755Z,79.16
2023-01-21T04:24:25.653Z,79.44
2023-01-21T04:26:52.654Z,79.57
2023-01-21T04:29:20.680Z,79.75
2023-01-21T04:31:47.885Z,79.43
2023-01-21T04:34:16.737Z,79.72
2023-01-21T04:36:43.592Z,79.38
2023-01-21T04:39:11.440Z,79.27
2023-01-21T04:41:38.296Z,79.42
2023-01-21T04:44:05.177Z,79.55
2023-01-21T04:46:31.840Z,79.51
2023-01-21T04:48:58.664Z,79.20
2023-01-21T04:51:25.404Z,79.25
2023-01-21T04:53:52.162Z,79.59
2023-01-21T04:56:18.913Z,79.27
2023-01-21T04:58:45.928Z,79.70
2023-01-21T05:01:12.576Z,79.63
2023-01-21T05:03:39.418Z,79.59
2023-01-21T05:06:06.313Z,79.52
2023-01-21T05:08:33.066Z,79.57
2023-01-21T05:10:59.784Z,79.22
2023-01-21T05:13:26.608Z,79.52
2023-01-21T05:15:53.747Z,79.84
2023-01-21T05:18:20.557Z,79.48
2023-01-21T05:20:47.394Z,79.54
2023-01-21T05:23:14.086Z,79.66
2023-01-21T05:25:40.823Z,79.88
2023-01-21T05:28:08.128Z,79.80
2023-01-21T05:30:34.970Z,79.79
2023-01-21T05:33:02.022Z,79.79
2023-01-21T05:35:28.834Z,79.71
2023-01-21T05:37:55.860Z,79.75
2023-01-21T05:40:23.028Z,79.41
2023-01-21T05:42:49.747Z,79.98
2023-01-21T05:45:16.715Z,79.64
2023-01-21T05:47:43.870Z,79.48
2023-01-21T05:50:11.560Z,79.83
2023-01-21T05:52:38.751Z,79.77
2023-01-21T05:55:06.224Z,79.68
2023-01-21T05:57:33.985Z,79.72
2023-01-21T06:00:00.814Z,79.37
2023-01-21T06:02:27.728Z,79.58
2023-01-21T06:04:54.616Z,79.64
2023-01-21T06:07:21.287Z,79.43
2023-01-21T06:09:48.288Z,79.59
2023-01-21T06:12:15.032Z,79.50
2023-01-21T06:14:41.766Z,79.87
2023-01-21T06:17:08.611Z,79.85
2023-01-21T06:19:35.243Z,79.32
2023-01-21T06:22:02.027Z,79.56
2023-01-21T06:24:28.766Z,79.92
2023-01-21T06:26:55.542Z,79.82
2023-01-21T06:29:22.228Z,79.67
2023-01-21T06:31:48.925Z,79.46
2023-01-21T06:34:15.817Z,79.97
2023-01-21T06:36:42.958Z,79.35
2023-01-21T06:39:11.064Z,79.44
2023-01-21T06:41:38.012Z,79.69
2023-01-21T06:44:05.036Z,79.52
2023-01-21T06:46:31.928Z,79.69
2023-01-21T06:48:58.755Z,79.47
2023-01-21T06:51:25.785Z,79.69
2023-01-21T06:53:52.793Z,79.99
2023-01-21T06:56:19.861Z,79.87
2023-01-21T06:58:46.656Z,80.05
2023-01-21T07:01:13.550Z,79.94
2023-01-21T07:03:40.398Z,79.78
2023-01-21T07:06:07.210Z,79.75
2023-01-21T07:08:33.879Z,80.02
2023-01-21T07:11:00.633Z,79.96
2023-01-21T07:13:27.279Z,79.82
2023-01-21T07:15:59.861Z,80.05
2023-01-21T07:18:26.652Z,79.96
2023-01-21T07:20:53.441Z,79.84
2023-01-21T07:23:20.233Z,79.66
2023-01-21T07:25:47.091Z,80.00
2023-01-21T07:28:13.726Z,79.62
2023-01-21T07:30:40.661Z,79.76
2023-01-21T07:33:08.670Z,79.90
2023-01-21T07:35:35.844Z,79.56
2023-01-21T07:38:02.852Z,79.61
2023-01-21T07:40:29.755Z,80.05
2023-01-21T07:42:56.619Z,80.20
2023-01-21T07:45:23.866Z,79.90
2023-01-21T07:47:50.639Z,79.93
2023-01-21T07:50:17.501Z,79.78
2023-01-21T07:52:44.477Z,79.77
2023-01-21T07:55:12.736Z,79.84
2023-01-21T07:57:39.590Z,79.89
2023-01-21T08:00:07.210Z,79.92
2023-01-21T09:21:14.625Z,80.11
2023-01-21T09:23:42.021Z,80.49
2023-01-21T09:26:23.600Z,80.31
2023-01-21T09:28:58.669Z,79.96
2023-01-21T09:31:27.018Z,80.27
2023-01-21T09:34:00.079Z,80.23
2023-01-21T09:36:30.476Z,80.39
2023-01-21T09:38:57.453Z,79.94
2023-01-21T09:41:46.225Z,80.83
2023-01-21T09:44:28.304Z,80.04
2023-01-21T09:46:55.077Z,80.39
2023-01-21T09:49:37.792Z,79.90
2023-01-21T09:52:25.921Z,80.37
2023-01-21T09:54:53.757Z,80.12
2023-01-21T09:57:32.804Z,79.78
2023-01-21T10:00:11.940Z,80.63
2023-01-21T10:03:04.771Z,80.62
2023-01-21T10:05:53.235Z,80.72
2023-01-21T10:08:57.250Z,80.28
2023-01-21T10:11:34.842Z,80.69
2023-01-21T10:14:22.669Z,80.70
2023-01-21T10:17:05.742Z,80.56
2023-01-21T10:20:07.325Z,80.86
2023-01-21T10:22:35.680Z,80.46
2023-01-21T10:25:34.296Z,80.56
2023-01-21T10:28:19.455Z,80.90
2023-01-21T10:30:50.924Z,80.36
2023-01-21T10:33:29.011Z,80.84
2023-01-21T10:36:14.292Z,80.54
2023-01-21T10:38:43.632Z,80.40
2023-01-21T10:41:38.287Z,80.43
2023-01-21T10:44:35.213Z,81.08
2023-01-21T10:47:13.796Z,80.82
2023-01-21T10:49:52.481Z,80.78
2023-01-21T10:52:45.522Z,80.90
2023-01-21T10:55:44.509Z,80.59
2023-01-21T10:58:51.862Z,80.58
2023-01-21T11:01:26.535Z,80.94
2023-01-21T11:04:12.303Z,80.66
2023-01-21T11:06:39.956Z,80.89
2023-01-21T11:09:10.788Z,80.69
2023-01-21T11:11:40.429Z,80.52
2023-01-21T11:14:07.315Z,80.72
2023-01-21T11:16:53.666Z,80.48
2023-01-21T11:19:26.326Z,80.59
2023-01-21T11:22:06.739Z,81.08
2023-01-21T11:24:43.481Z,80.62
2023-01-21T11:27:32.838Z,80.80
2023-01-21T11:30:00.096Z,80.87
2023-01-21T11:32:29.215Z,80.72
2023-01-21T11:35:03.282Z,80.84
2023-01-21T11:37:31.668Z,80.28
2023-01-21T11:40:01.842Z,80.58
2023-01-21T11:42:28.743Z,80.35
2023-01-21T11:44:57.555Z,80.33
2023-01-21T11:47:50.044Z,80.46
2023-01-21T11:50:17.136Z,80.19
2023-01-21T11:52:44.470Z,79.89
2023-01-21T11:55:19.296Z,80.15
2023-01-21T11:57:51.835Z,79.58
2023-01-21T12:00:21.168Z,79.60
2023-01-21T12:02:59.593Z,79.30
2023-01-21T12:05:33.632Z,78.28
2023-01-21T12:08:02.775Z,78.38
2023-01-21T12:10:33.264Z,77.39
2023-01-21T12:13:21.148Z,77.86
2023-01-21T12:16:03.615Z,77.74
2023-01-21T12:18:49.307Z,76.39
2023-01-21T12:21:47.179Z,75.59
2023-01-21T12:24:22.811Z,76.03
2023-01-21T12:27:15.425Z,75.44
2023-01-21T12:30:05.846Z,75.14
2023-01-21T12:32:43.114Z,75.17
2023-01-21T12:35:38.940Z,75.06
2023-01-21T12:38:13.548Z,73.64
2023-01-21T12:40:50.965Z,74.73
2023-01-21T12:43:32.672Z,73.94
2023-01-21T12:46:06.357Z,74.13
2023-01-21T12:48:45.397Z,74.15
2023-01-21T12:51:21.286Z,74.48
2023-01-21T12:53:58.953Z,73.07
2023-01-21T12:56:31.599Z,72.27
2023-01-21T12:59:14.358Z,73.11
2023-01-21T13:02:05.782Z,73.04
2023-01-21T13:04:55.376Z,71.90
2023-01-21T13:07:40.910Z,71.01
2023-01-21T13:10:22.581Z,71.76
2023-01-21T13:13:18.408Z,71.64
2023-01-21T13:15:49.899Z,70.43
2023-01-21T13:18:22.538Z,71.26
2023-01-21T13:20:54.533Z,70.98
2023-01-21T13:23:40.733Z,69.25
2023-01-21T13:26:16.183Z,69.34
2023-01-21T13:28:51.916Z,69.73
2023-01-21T13:31:48.532Z,69.02
2023-01-21T13:34:21.448Z,68.58
2023-01-21T13:36:54.039Z,66.08
2023-01-21T13:39:38.262Z,67.98
2023-01-21T13:42:26.530Z,68.21
2023-01-21T13:44:59.108Z,68.80
2023-01-21T13:47:54.977Z,67.96
2023-01-21T13:50:32.018Z,68.35
2023-01-21T13:53:13.415Z,68.49
2023-01-21T13:56:18.770Z,68.10
2023-01-21T13:58:57.847Z,68.11
2023-01-21T14:01:44.683Z,68.18
2023-01-21T14:04:33.087Z,68.30
2023-01-21T14:07:25.644Z,68.40
2023-01-21T14:10:21.048Z,67.93
2023-01-21T14:13:12.166Z,68.35
2023-01-21T14:15:57.507Z,68.22
2023-01-21T14:18:54.611Z,67.71
2023-01-21T14:21:50.814Z,67.26
2023-01-21T14:24:26.447Z,67.54
2023-01-21T14:27:23.038Z,65.94
2023-01-21T14:30:16.333Z,66.69
2023-01-21T14:32:50.945Z,65.99
2023-01-21T14:35:40.916Z,66.43
2023-01-21T14:38:28.593Z,66.10
2023-01-21T14:41:08.484Z,66.64
2023-01-21T14:43:38.056Z,66.26
2023-01-21T14:46:25.937Z,66.16
2023-01-21T14:49:14.132Z,66.03
2023-01-21T14:51:49.641Z,66.37
2023-01-21T14:54:19.960Z,66.50
2023-01-21T14:57:18.314Z,66.20
2023-01-21T14:59:46.615Z,66.27
2023-01-21T15:02:42.506Z,66.42
2023-01-21T15:05:25.741Z,66.37
2023-01-21T15:08:09.154Z,66.31
2023-01-21T15:10:39.376Z,66.66
2023-01-21T15:13:39.814Z,66.77
2023-01-21T15:16:31.203Z,66.95
2023-01-21T15:19:10.360Z,66.75
2023-01-21T15:21:46.122Z,66.88
2023-01-21T15:24:19.319Z,66.86
2023-01-21T15:27:18.342Z,66.63
2023-01-21T15:29:54.384Z,67.00
2023-01-21T15:32:27.097Z,67.24
2023-01-21T15:35:00.766Z,67.28
2023-01-21T15:37:30.971Z,67.05
2023-01-21T15:40:05.128Z,67.55
2023-01-21T15:43:01.158Z,67.26
2023-01-21T15:45:55.712Z,67.68
2023-01-21T15:48:40.941Z,67.88
2023-01-21T15:51:31.087Z,67.85
2023-01-21T15:54:31.707Z,67.92
2023-01-21T15:57:25.751Z,68.09
2023-01-21T16:00:12.234Z,68.18
2023-01-21T16:03:00.469Z,68.20
2023-01-21T16:06:08.969Z,68.45
2023-01-21T16:09:04.645Z,68.81
2023-01-21T16:11:38.098Z,68.67
2023-01-21T16:14:23.220Z,69.04
2023-01-21T16:16:53.182Z,68.68
2023-01-21T16:19:34.307Z,69.27
2023-01-21T16:22:07.594Z,69.51
2023-01-21T16:24:44.625Z,69.15
2023-01-21T16:27:23.162Z,69.25
2023-01-21T16:29:57.154Z,69.97
2023-01-21T16:32:24.488Z,69.61
2023-01-21T16:34:51.257Z,69.85
2023-01-21T16:37:20.391Z,70.06
2023-01-21T16:39:47.417Z,69.89
2023-01-21T16:42:38.208Z,70.23
2023-01-21T16:45:26.115Z,70.38
2023-01-21T16:47:56.994Z,70.77
2023-01-21T16:50:26.482Z,70.71
2023-01-21T16:52:54.490Z,70.94
2023-01-21T16:55:25.917Z,70.80
2023-01-21T16:57:55.719Z,71.19
2023-01-21T17:00:40.708Z,71.41
2023-01-21T17:03:11.832Z,71.42
2023-01-21T17:05:40.471Z,71.38
2023-01-21T17:08:11.792Z,71.06
2023-01-21T17:10:52.230Z,71.45
2023-01-21T17:13:19.147Z,71.65
2023-01-21T17:15:58.390Z,71.76
2023-01-21T17:18:59.481Z,71.50
2023-01-21T17:21:35.719Z,71.92
2023-01-21T17:24:05.994Z,71.98
2023-01-21T17:26:44.092Z,71.74
2023-01-21T17:29:18.292Z,72.04
2023-01-21T17:31:46.183Z,72.12
2023-01-21T17:34:15.889Z,72.07
2023-01-21T17:36:49.154Z,72.48
2023-01-21T17:39:44.890Z,72.39
2023-01-21T17:42:21.637Z,72.56
2023-01-21T17:44:55.369Z,72.60
2023-01-21T17:47:33.042Z,72.41
2023-01-21T17:50:08.766Z,72.69
2023-01-21T17:52:35.626Z,72.48
2023-01-21T17:55:12.789Z,72.90
2023-01-21T17:57:41.622Z,72.84
2023-01-21T18:00:42.545Z,73.05
2023-01-21T18:03:11.047Z,72.81
2023-01-21T18:05:39.585Z,72.88
2023-01-21T18:08:17.718Z,73.21
2023-01-21T18:10:46.009Z,73.10
2023-01-21T18:13:14.942Z,73.11
2023-01-21T18:15:44.260Z,73.24
2023-01-21T18:18:17.366Z,73.57
2023-01-21T18:20:45.905Z,73.20
2023-01-21T18:23:13.308Z,73.62
2023-01-21T18:25:41.092Z,73.53
2023-01-21T18:28:21.357Z,73.80
2023-01-21T18:30:49.767Z,73.56
2023-01-21T18:33:17.687Z,73.87
2023-01-21T18:35:47.889Z,73.49
2023-01-21T18:38:27.750Z,73.88
2023-01-21T18:40:55.692Z,73.92
2023-01-21T18:43:23.421Z,73.81
2023-01-21T18:45:50.065Z,74.04
2023-01-21T18:48:20.776Z,74.24
2023-01-21T18:50:47.439Z,73.99
2023-01-21T18:53:14.292Z,74.15
2023-01-21T18:55:50.962Z,74.55
2023-01-21T18:58:17.665Z,74.24
2023-01-21T19:00:44.415Z,74.43
2023-01-21T19:03:15.267Z,74.42
2023-01-21T19:05:49.927Z,74.29
2023-01-21T19:08:24.873Z,74.47
2023-01-21T19:10:51.998Z,74.76
2023-01-21T19:13:18.964Z,74.45
2023-01-21T19:15:47.411Z,74.43
2023-01-21T19:18:16.181Z,74.92
2023-01-21T19:20:44.058Z,74.63
2023-01-21T19:23:16.348Z,74.89
2023-01-21T19:26:12.161Z,75.04
2023-01-21T19:28:39.125Z,75.13
2023-01-21T19:31:05.978Z,75.41
2023-01-21T19:33:33.044Z,75.32
2023-01-21T19:36:04.534Z,74.99
2023-01-21T19:38:31.314Z,75.47
2023-01-21T19:40:58.117Z,75.58
2023-01-21T19:43:25.129Z,75.12
2023-01-21T19:45:52.680Z,75.78
2023-01-21T19:48:21.417Z,75.67
2023-01-21T19:50:49.448Z,75.74
2023-01-21T19:53:18.179Z,75.64
2023-01-21T19:55:46.371Z,75.45
2023-01-21T19:58:29.070Z,75.74
2023-01-21T20:00:56.039Z,76.08
2023-01-21T20:03:25.597Z,75.76
2023-01-21T20:05:57.430Z,75.98
2023-01-21T20:08:27.851Z,75.86
2023-01-21T20:10:54.520Z,75.82
2023-01-21T20:13:21.985Z,76.03
2023-01-21T20:15:51.550Z,75.91
2023-01-21T20:18:22.630Z,76.02
2023-01-21T20:20:49.884Z,75.94
2023-01-21T20:23:17.240Z,76.53
2023-01-21T20:25:45.959Z,76.25
2023-01-21T20:28:18.677Z,76.31
2023-01-21T20:30:46.485Z,76.59
2023-01-21T20:33:16.050Z,76.68
2023-01-21T20:35:44.687Z,76.36
2023-01-21T20:38:16.676Z,76.36
2023-01-21T20:40:43.582Z,76.75
2023-01-21T20:43:10.953Z,76.75
2023-01-21T20:45:43.577Z,77.10
2023-01-21T20:48:18.849Z,76.76
2023-01-21T20:50:46.911Z,76.59
2023-01-21T20:53:14.308Z,76.79
2023-01-21T20:55:43.565Z,77.09
2023-01-21T20:58:13.774Z,77.17
2023-01-21T21:00:41.365Z,77.37
2023-01-21T21:03:08.406Z,77.44
2023-01-21T21:05:35.261Z,77.30
2023-01-21T21:08:02.682Z,77.42
2023-01-21T21:10:34.684Z,77.52
2023-01-21T21:13:01.769Z,77.16
2023-01-21T21:15:30.489Z,77.34
2023-01-21T21:17:58.200Z,77.13
2023-01-21T21:20:30.757Z,77.54
2023-01-21T21:22:57.703Z,77.05
2023-01-21T21:25:30.510Z,77.29
2023-01-21T21:27:57.905Z,77.39
2023-01-21T21:30:33.063Z,77.29
2023-01-21T21:33:01.230Z,77.46
2023-01-21T21:35:35.970Z,77.73
2023-01-21T21:38:08.244Z,77.85
2023-01-21T21:40:35.778Z,77.61
2023-01-21T21:43:21.471Z,77.33
2023-01-21T21:46:07.181Z,77.28
2023-01-21T21:48:44.406Z,77.65
2023-01-21T21:51:19.293Z,77.66
2023-01-21T21:53:46.748Z,77.23
2023-01-21T21:56:19.013Z,77.39
2023-01-21T21:58:46.108Z,77.07
2023-01-21T22:01:17.010Z,77.04
2023-01-21T22:03:44.543Z,77.17
2023-01-21T22:06:11.991Z,77.48
2023-01-21T22:08:41.284Z,77.29
2023-01-21T22:11:19.271Z,76.90
2023-01-21T22:13:50.351Z,77.34
2023-01-21T22:16:28.620Z,76.95
2023-01-21T22:18:57.349Z,77.01
2023-01-21T22:21:29.472Z,77.33
2023-01-21T22:23:56.417Z,77.09
2023-01-21T22:26:24.811Z,77.25
2023-01-21T22:28:52.159Z,77.24
2023-01-21T22:31:23.232Z,77.28
2023-01-21T22:33:50.877Z,76.81
2023-01-21T22:36:20.050Z,76.79
2023-01-21T22:38:47.407Z,76.57
2023-01-21T22:41:16.320Z,76.84
2023-01-21T22:43:48.350Z,76.57
2023-01-21T22:46:19.123Z,76.39
2023-01-21T22:48:46.841Z,76.54
2023-01-21T22:51:15.942Z,76.63
2023-01-21T22:53:46.117Z,76.48
2023-01-21T22:56:15.729Z,76.33
2023-01-21T22:58:43.412Z,76.54
2023-01-21T23:01:32.697Z,76.23
2023-01-21T23:04:00.135Z,76.41
2023-01-21T23:06:28.129Z,75.97
2023-01-21T23:08:55.829Z,76.60
2023-01-21T23:11:22.766Z,76.02
2023-01-21T23:13:49.901Z,76.18
2023-01-21T23:16:18.941Z,76.28
2023-01-21T23:18:45.832Z,75.88
2023-01-21T23:21:19.411Z,76.05
2023-01-21T23:23:46.915Z,75.91
2023-01-21T23:26:14.470Z,76.03
2023-01-21T23:28:41.646Z,76.34
2023-01-21T23:31:14.068Z,75.76
2023-01-21T23:33:41.660Z,76.03
2023-01-21T23:36:12.723Z,75.77
2023-01-21T23:38:40.674Z,76.15
2023-01-21T23:41:09.588Z,76.01
2023-01-21T23:43:37.112Z,75.83
2023-01-21T23:46:06.229Z,76.04
2023-01-21T23:48:33.142Z,75.77
2023-01-21T23:51:07.323Z,75.80
2023-01-21T23:53:34.697Z,75.62
2023-01-21T23:56:07.255Z,75.73
2023-01-21T23:58:34.212Z,75.68
